Auburn, Kansas
Current Conditions -  °F | °C
As of 6:53 PM on Wednesday 22 Oct 2014 (Local Time) from KFOE Reporting Station
Clear Clear  
Wind Chill: 70°   Ceiling: Unl
Heat Index: 70°   Visibility: 10mi
Dew Point: 58°   Wind: 8mph
Humidity: 65%   Direction: 140°SE
Pressure: 30.06"   Gusts: NA
Location:  38.91°N, 95.82°W
Report Text: KFOE 222353Z 14007KT 10SM CLR 21/14 A3006 RMK AO2 SLP174 T02110144 10261 20211 53000
Loading
Personal Weather Stations






























Interactive Weather Map
Tropical Storm Tracking
New forecast layout! Learn more

10-Day Weather Forecast

Advertisements
Track Severe Weather on mobile